sensor_id;sensor_type;location;lat;lon;timestamp;pressure;altitude;pressure_sealevel;temperature;humidity
51526;BME280;37611;51.794;21.590;2023-11-19T02:50:42;100400.63;;;0.44;100.00
51526;BME280;37611;51.794;21.590;2023-11-19T02:54:44;100397.86;;;0.41;100.00
51526;BME280;37611;51.794;21.590;2023-11-19T02:58:46;100395.31;;;0.30;100.00
51526;BME280;37611;51.794;21.590;2023-11-19T03:02:51;100395.57;;;0.21;100.00
51526;BME280;37611;51.794;21.590;2023-11-19T03:07:00;100397.53;;;0.13;100.00
51526;BME280;37611;51.794;21.590;2023-11-19T03:11:02;100394.10;;;0.06;100.00
51526;BME280;37611;51.794;21.590;2023-11-19T03:15:07;100386.41;;;-0.02;100.00
51526;BME280;37611;51.794;21.590;2023-11-19T03:19:11;100372.86;;;0.00;100.00
51526;BME280;37611;51.794;21.590;2023-11-19T03:23:13;100373.19;;;-0.03;100.00
51526;BME280;37611;51.794;21.590;2023-11-19T03:27:15;100363.77;;;-0.11;100.00
51526;BME280;37611;51.794;21.590;2023-11-19T03:31:16;100352.70;;;-0.17;100.00
51526;BME280;37611;51.794;21.590;2023-11-19T03:35:18;100352.20;;;-0.17;100.00
51526;BME280;37611;51.794;21.590;2023-11-19T03:39:20;100344.39;;;-0.19;100.00
51526;BME280;37611;51.794;21.590;2023-11-19T03:43:22;100339.67;;;-0.17;100.00
51526;BME280;37611;51.794;21.590;2023-11-19T03:47:24;100341.27;;;-0.19;100.00
51526;BME280;37611;51.794;21.590;2023-11-19T03:51:25;100331.45;;;-0.18;100.00
51526;BME280;37611;51.794;21.590;2023-11-19T03:55:27;100321.35;;;-0.19;100.00
51526;BME280;37611;51.794;21.590;2023-11-19T03:59:30;100304.96;;;-0.22;100.00
51526;BME280;37611;51.794;21.590;2023-11-19T04:03:32;100305.76;;;-0.21;100.00
51526;BME280;37611;51.794;21.590;2023-11-19T04:07:34;100310.80;;;-0.19;100.00
51526;BME280;37611;51.794;21.590;2023-11-19T04:11:36;100303.80;;;-0.16;100.00
51526;BME280;37611;51.794;21.590;2023-11-19T04:15:38;100298.27;;;-0.16;100.00
51526;BME280;37611;51.794;21.590;2023-11-19T04:19:39;100293.38;;;-0.18;100.00
51526;BME280;37611;51.794;21.590;2023-11-19T04:23:42;100294.65;;;-0.19;100.00
51526;BME280;37611;51.794;21.590;2023-11-19T04:27:44;100292.98;;;-0.17;100.00
51526;BME280;37611;51.794;21.590;2023-11-19T04:31:46;100285.04;;;-0.20;100.00
51526;BME280;37611;51.794;21.590;2023-11-19T04:35:48;100274.54;;;-0.23;100.00
51526;BME280;37611;51.794;21.590;2023-11-19T04:39:50;100265.34;;;-0.18;100.00
51526;BME280;37611;51.794;21.590;2023-11-19T04:43:53;100256.69;;;-0.17;100.00
51526;BME280;37611;51.794;21.590;2023-11-19T04:47:55;100254.55;;;-0.19;100.00
51526;BME280;37611;51.794;21.590;2023-11-19T04:51:57;100255.62;;;-0.27;100.00
51526;BME280;37611;51.794;21.590;2023-11-19T04:55:59;100246.17;;;-0.30;100.00
51526;BME280;37611;51.794;21.590;2023-11-19T05:00:00;100238.24;;;-0.27;100.00
51526;BME280;37611;51.794;21.590;2023-11-19T05:04:03;100230.30;;;-0.19;100.00
51526;BME280;37611;51.794;21.590;2023-11-19T05:08:04;100230.77;;;-0.15;100.00
51526;BME280;37611;51.794;21.590;2023-11-19T05:12:06;100213.88;;;-0.18;100.00
51526;BME280;37611;51.794;21.590;2023-11-19T05:16:12;100205.04;;;-0.20;100.00
51526;BME280;37611;51.794;21.590;2023-11-19T05:20:17;100195.62;;;-0.25;100.00
51526;BME280;37611;51.794;21.590;2023-11-19T05:24:19;100195.02;;;-0.27;100.00
51526;BME280;37611;51.794;21.590;2023-11-19T05:28:21;100192.36;;;-0.28;100.00
51526;BME280;37611;51.794;21.590;2023-11-19T05:32:23;100184.36;;;-0.30;100.00
51526;BME280;37611;51.794;21.590;2023-11-19T05:36:25;100180.48;;;-0.25;100.00
51526;BME280;37611;51.794;21.590;2023-11-19T05:40:26;100186.30;;;-0.24;100.00
51526;BME280;37611;51.794;21.590;2023-11-19T05:44:28;100186.33;;;-0.24;100.00
51526;BME280;37611;51.794;21.590;2023-11-19T05:48:30;100195.52;;;-0.19;100.00
51526;BME280;37611;51.794;21.590;2023-11-19T05:52:32;100200.00;;;-0.16;100.00
51526;BME280;37611;51.794;21.590;2023-11-19T05:56:35;100203.39;;;-0.11;100.00
51526;BME280;37611;51.794;21.590;2023-11-19T06:00:37;100195.61;;;-0.11;100.00
51526;BME280;37611;51.794;21.590;2023-11-19T06:04:39;100197.09;;;-0.10;100.00
51526;BME280;37611;51.794;21.590;2023-11-19T06:08:41;100192.60;;;-0.06;100.00
51526;BME280;37611;51.794;21.590;2023-11-19T06:12:44;100190.98;;;-0.05;100.00
51526;BME280;37611;51.794;21.590;2023-11-19T06:16:47;100193.50;;;-0.04;100.00
51526;BME280;37611;51.794;21.590;2023-11-19T06:20:49;100189.32;;;-0.06;100.00
51526;BME280;37611;51.794;21.590;2023-11-19T06:24:51;100183.49;;;-0.06;100.00
51526;BME280;37611;51.794;21.590;2023-11-19T06:28:53;100173.42;;;-0.08;100.00
51526;BME280;37611;51.794;21.590;2023-11-19T06:32:55;100174.55;;;-0.10;100.00
51526;BME280;37611;51.794;21.590;2023-11-19T06:36:57;100177.61;;;-0.09;100.00
51526;BME280;37611;51.794;21.590;2023-11-19T06:40:59;100181.73;;;-0.06;100.00
51526;BME280;37611;51.794;21.590;2023-11-19T06:45:02;100178.54;;;-0.04;100.00
51526;BME280;37611;51.794;21.590;2023-11-19T06:49:05;100171.81;;;-0.03;100.00
51526;BME280;37611;51.794;21.590;2023-11-19T06:53:07;100166.68;;;-0.04;100.00
51526;BME280;37611;51.794;21.590;2023-11-19T06:57:12;100157.56;;;-0.08;100.00
51526;BME280;37611;51.794;21.590;2023-11-19T07:01:15;100153.45;;;-0.05;100.00
51526;BME280;37611;51.794;21.590;2023-11-19T07:05:17;100146.55;;;-0.05;100.00
51526;BME280;37611;51.794;21.590;2023-11-19T07:09:19;100138.96;;;-0.01;100.00
51526;BME280;37611;51.794;21.590;2023-11-19T07:13:21;100142.12;;;-0.02;100.00
51526;BME280;37611;51.794;21.590;2023-11-19T07:17:23;100135.66;;;-0.04;100.00
51526;BME280;37611;51.794;21.590;2023-11-19T07:21:25;100134.96;;;0.00;100.00
51526;BME280;37611;51.794;21.590;2023-11-19T07:25:29;100122.94;;;0.03;100.00
51526;BME280;37611;51.794;21.590;2023-11-19T07:29:31;100118.02;;;-0.02;100.00
51526;BME280;37611;51.794;21.590;2023-11-19T07:33:33;100108.81;;;-0.01;100.00
51526;BME280;37611;51.794;21.590;2023-11-19T07:37:35;100109.95;;;0.01;100.00
51526;BME280;37611;51.794;21.590;2023-11-19T07:41:36;100099.00;;;0.03;100.00
51526;BME280;37611;51.794;21.590;2023-11-19T07:45:38;100095.73;;;0.06;100.00
51526;BME280;37611;51.794;21.590;2023-11-19T07:49:40;100098.52;;;0.08;100.00
51526;BME280;37611;51.794;21.590;2023-11-19T07:53:42;100102.58;;;0.13;100.00
51526;BME280;37611;51.794;21.590;2023-11-19T07:57:44;100091.66;;;0.17;100.00
51526;BME280;37611;51.794;21.590;2023-11-19T08:07:05;100084.35;;;0.16;100.00
51526;BME280;37611;51.794;21.590;2023-11-19T08:12:49;100074.77;;;0.21;100.00
51526;BME280;37611;51.794;21.590;2023-11-19T08:16:51;100072.73;;;0.20;100.00
51526;BME280;37611;51.794;21.590;2023-11-19T08:20:54;100068.45;;;0.14;100.00
51526;BME280;37611;51.794;21.590;2023-11-19T08:24:58;100066.16;;;0.11;100.00
51526;BME280;37611;51.794;21.590;2023-11-19T08:29:00;100062.34;;;0.06;100.00
51526;BME280;37611;51.794;21.590;2023-11-19T08:33:01;100055.42;;;0.06;100.00
51526;BME280;37611;51.794;21.590;2023-11-19T08:37:07;100048.03;;;0.06;100.00
51526;BME280;37611;51.794;21.590;2023-11-19T08:41:09;100043.70;;;0.04;100.00
51526;BME280;37611;51.794;21.590;2023-11-19T08:45:11;100044.34;;;0.05;100.00
51526;BME280;37611;51.794;21.590;2023-11-19T08:49:13;100043.05;;;0.06;100.00
51526;BME280;37611;51.794;21.590;2023-11-19T08:53:15;100030.63;;;0.06;100.00
51526;BME280;37611;51.794;21.590;2023-11-19T08:57:17;100019.70;;;0.05;100.00
51526;BME280;37611;51.794;21.590;2023-11-19T09:01:18;100019.35;;;0.05;100.00
51526;BME280;37611;51.794;21.590;2023-11-19T09:05:20;100008.04;;;0.07;100.00
51526;BME280;37611;51.794;21.590;2023-11-19T09:09:22;100004.36;;;0.11;100.00
51526;BME280;37611;51.794;21.590;2023-11-19T09:13:24;99996.11;;;0.14;100.00
51526;BME280;37611;51.794;21.590;2023-11-19T09:17:25;99984.30;;;0.16;100.00
51526;BME280;37611;51.794;21.590;2023-11-19T09:21:27;99976.69;;;0.22;100.00
51526;BME280;37611;51.794;21.590;2023-11-19T09:25:31;99968.80;;;0.28;100.00
51526;BME280;37611;51.794;21.590;2023-11-19T09:29:33;99970.52;;;0.31;100.00
51526;BME280;37611;51.794;21.590;2023-11-19T09:33:35;99967.69;;;0.35;100.00
51526;BME280;37611;51.794;21.590;2023-11-19T09:37:37;99963.18;;;0.39;100.00
51526;BME280;37611;51.794;21.590;2023-11-19T09:41:38;99956.59;;;0.45;100.00
51526;BME280;37611;51.794;21.590;2023-11-19T09:45:50;99954.73;;;0.48;100.00
51526;BME280;37611;51.794;21.590;2023-11-19T09:49:59;99947.52;;;0.50;100.00
51526;BME280;37611;51.794;21.590;2023-11-19T09:54:01;99937.64;;;0.42;100.00
51526;BME280;37611;51.794;21.590;2023-11-19T09:58:03;99930.65;;;0.41;100.00
51526;BME280;37611;51.794;21.590;2023-11-19T10:02:07;99922.38;;;0.44;100.00
51526;BME280;37611;51.794;21.590;2023-11-19T10:06:10;99911.36;;;0.42;100.00
51526;BME280;37611;51.794;21.590;2023-11-19T10:10:12;99906.99;;;0.37;100.00
51526;BME280;37611;51.794;21.590;2023-11-19T10:14:23;99898.43;;;0.33;100.00
51526;BME280;37611;51.794;21.590;2023-11-19T10:18:26;99887.97;;;0.32;100.00
51526;BME280;37611;51.794;21.590;2023-11-19T10:22:28;99878.23;;;0.34;100.00
51526;BME280;37611;51.794;21.590;2023-11-19T10:26:31;99870.29;;;0.37;100.00
51526;BME280;37611;51.794;21.590;2023-11-19T10:30:36;99861.56;;;0.36;100.00
51526;BME280;37611;51.794;21.590;2023-11-19T10:34:41;99854.00;;;0.39;100.00
51526;BME280;37611;51.794;21.590;2023-11-19T10:38:53;99847.93;;;0.39;100.00
51526;BME280;37611;51.794;21.590;2023-11-19T10:43:04;99846.61;;;0.38;100.00
51526;BME280;37611;51.794;21.590;2023-11-19T10:47:18;99847.77;;;0.39;100.00
51526;BME280;37611;51.794;21.590;2023-11-19T10:51:21;99843.15;;;0.41;100.00
51526;BME280;37611;51.794;21.590;2023-11-19T10:55:33;99837.20;;;0.40;100.00
51526;BME280;37611;51.794;21.590;2023-11-19T10:59:37;99827.16;;;0.44;100.00
51526;BME280;37611;51.794;21.590;2023-11-19T11:03:40;99819.80;;;0.46;100.00
51526;BME280;37611;51.794;21.590;2023-11-19T11:07:43;99814.67;;;0.48;100.00
51526;BME280;37611;51.794;21.590;2023-11-19T11:11:49;99804.23;;;0.53;100.00
51526;BME280;37611;51.794;21.590;2023-11-19T11:15:53;99795.64;;;0.55;100.00
51526;BME280;37611;51.794;21.590;2023-11-19T11:19:57;99788.56;;;0.53;100.00
51526;BME280;37611;51.794;21.590;2023-11-19T11:24:20;99775.33;;;0.52;100.00
51526;BME280;37611;51.794;21.590;2023-11-19T11:28:43;99762.69;;;0.47;100.00
51526;BME280;37611;51.794;21.590;2023-11-19T11:32:59;99759.09;;;0.49;100.00
51526;BME280;37611;51.794;21.590;2023-11-19T11:41:24;99745.26;;;0.62;100.00
51526;BME280;37611;51.794;21.590;2023-11-19T11:45:40;99744.86;;;0.62;100.00
51526;BME280;37611;51.794;21.590;2023-11-19T11:49:47;99740.89;;;0.68;100.00
51526;BME280;37611;51.794;21.590;2023-11-19T11:53:51;99726.83;;;0.76;100.00
51526;BME280;37611;51.794;21.590;2023-11-19T11:57:55;99720.95;;;0.76;100.00
51526;BME280;37611;51.794;21.590;2023-11-19T12:01:58;99713.17;;;0.79;100.00
51526;BME280;37611;51.794;21.590;2023-11-19T12:06:00;99701.45;;;0.76;100.00
51526;BME280;37611;51.794;21.590;2023-11-19T12:10:09;99694.98;;;0.75;100.00
51526;BME280;37611;51.794;21.590;2023-11-19T12:14:14;99687.58;;;0.72;100.00
51526;BME280;37611;51.794;21.590;2023-11-19T12:18:40;99677.30;;;0.68;100.00
51526;BME280;37611;51.794;21.590;2023-11-19T12:22:45;99671.64;;;0.65;100.00
51526;BME280;37611;51.794;21.590;2023-11-19T12:26:47;99663.92;;;0.62;100.00
51526;BME280;37611;51.794;21.590;2023-11-19T12:30:51;99663.17;;;0.63;100.00
51526;BME280;37611;51.794;21.590;2023-11-19T12:35:01;99658.08;;;0.61;100.00
51526;BME280;37611;51.794;21.590;2023-11-19T12:39:03;99651.92;;;0.56;100.00
51526;BME280;37611;51.794;21.590;2023-11-19T12:43:05;99648.50;;;0.56;100.00
51526;BME280;37611;51.794;21.590;2023-11-19T12:47:07;99639.95;;;0.57;100.00
51526;BME280;37611;51.794;21.590;2023-11-19T12:51:13;99632.73;;;0.56;100.00
51526;BME280;37611;51.794;21.590;2023-11-19T12:55:28;99631.34;;;0.57;100.00
51526;BME280;37611;51.794;21.590;2023-11-19T12:59:31;99620.58;;;0.58;100.00
51526;BME280;37611;51.794;21.590;2023-11-19T13:03:35;99619.48;;;0.59;100.00
51526;BME280;37611;51.794;21.590;2023-11-19T13:07:37;99612.42;;;0.56;100.00
51526;BME280;37611;51.794;21.590;2023-11-19T13:11:39;99601.65;;;0.52;100.00
51526;BME280;37611;51.794;21.590;2023-11-19T13:15:42;99595.64;;;0.49;100.00
51526;BME280;37611;51.794;21.590;2023-11-19T13:19:47;99591.50;;;0.49;100.00
51526;BME280;37611;51.794;21.590;2023-11-19T13:23:50;99583.45;;;0.48;100.00
51526;BME280;37611;51.794;21.590;2023-11-19T13:27:52;99587.63;;;0.42;100.00
51526;BME280;37611;51.794;21.590;2023-11-19T13:31:54;99587.14;;;0.42;100.00
51526;BME280;37611;51.794;21.590;2023-11-19T13:35:56;99574.75;;;0.45;100.00
51526;BME280;37611;51.794;21.590;2023-11-19T13:39:58;99577.12;;;0.45;100.00
51526;BME280;37611;51.794;21.590;2023-11-19T13:44:00;99572.09;;;0.46;100.00
51526;BME280;37611;51.794;21.590;2023-11-19T13:48:12;99570.89;;;0.46;100.00
51526;BME280;37611;51.794;21.590;2023-11-19T13:52:14;99561.02;;;0.46;100.00
51526;BME280;37611;51.794;21.590;2023-11-19T13:56:17;99555.38;;;0.48;100.00
51526;BME280;37611;51.794;21.590;2023-11-19T14:00:19;99545.96;;;0.50;100.00
51526;BME280;37611;51.794;21.590;2023-11-19T14:04:31;99541.88;;;0.55;100.00
51526;BME280;37611;51.794;21.590;2023-11-19T14:08:38;99536.09;;;0.56;100.00
51526;BME280;37611;51.794;21.590;2023-11-19T14:13:00;99531.46;;;0.53;100.00
51526;BME280;37611;51.794;21.590;2023-11-19T14:17:10;99527.42;;;0.52;100.00
51526;BME280;37611;51.794;21.590;2023-11-19T14:21:12;99521.80;;;0.53;100.00
51526;BME280;37611;51.794;21.590;2023-11-19T14:25:18;99526.05;;;0.46;100.00
51526;BME280;37611;51.794;21.590;2023-11-19T14:29:40;99525.75;;;0.40;100.00
51526;BME280;37611;51.794;21.590;2023-11-19T14:33:42;99523.77;;;0.34;100.00
51526;BME280;37611;51.794;21.590;2023-11-19T14:37:44;99513.10;;;0.31;100.00
51526;BME280;37611;51.794;21.590;2023-11-19T14:41:46;99497.39;;;0.29;100.00
51526;BME280;37611;51.794;21.590;2023-11-19T14:45:48;99486.16;;;0.27;100.00
51526;BME280;37611;51.794;21.590;2023-11-19T14:49:49;99475.19;;;0.29;100.00
51526;BME280;37611;51.794;21.590;2023-11-19T14:53:51;99465.36;;;0.26;100.00
51526;BME280;37611;51.794;21.590;2023-11-19T14:57:53;99456.73;;;0.24;100.00
51526;BME280;37611;51.794;21.590;2023-11-19T15:01:55;99461.33;;;0.28;100.00
51526;BME280;37611;51.794;21.590;2023-11-19T15:05:57;99459.71;;;0.29;100.00
51526;BME280;37611;51.794;21.590;2023-11-19T15:09:59;99450.27;;;0.28;100.00
51526;BME280;37611;51.794;21.590;2023-11-19T15:14:02;99451.65;;;0.31;100.00
51526;BME280;37611;51.794;21.590;2023-11-19T15:18:05;99447.91;;;0.30;100.00
51526;BME280;37611;51.794;21.590;2023-11-19T15:22:06;99447.19;;;0.30;100.00
51526;BME280;37611;51.794;21.590;2023-11-19T15:26:08;99443.33;;;0.32;100.00
51526;BME280;37611;51.794;21.590;2023-11-19T15:30:12;99446.77;;;0.34;100.00
51526;BME280;37611;51.794;21.590;2023-11-19T15:34:14;99447.20;;;0.36;100.00
51526;BME280;37611;51.794;21.590;2023-11-19T15:38:16;99444.27;;;0.36;100.00
51526;BME280;37611;51.794;21.590;2023-11-19T15:42:19;99435.25;;;0.37;100.00
51526;BME280;37611;51.794;21.590;2023-11-19T15:46:20;99431.05;;;0.35;100.00
51526;BME280;37611;51.794;21.590;2023-11-19T15:50:23;99431.92;;;0.35;100.00
51526;BME280;37611;51.794;21.590;2023-11-19T15:54:25;99428.08;;;0.36;100.00
51526;BME280;37611;51.794;21.590;2023-11-19T15:58:27;99428.13;;;0.37;100.00
51526;BME280;37611;51.794;21.590;2023-11-19T16:02:29;99420.91;;;0.40;100.00
51526;BME280;37611;51.794;21.590;2023-11-19T16:06:31;99411.79;;;0.40;100.00
51526;BME280;37611;51.794;21.590;2023-11-19T16:10:33;99412.09;;;0.41;100.00
51526;BME280;37611;51.794;21.590;2023-11-19T16:14:38;99407.98;;;0.40;100.00
51526;BME280;37611;51.794;21.590;2023-11-19T16:18:50;99413.16;;;0.40;100.00
51526;BME280;37611;51.794;21.590;2023-11-19T16:27:20;99426.44;;;0.47;100.00
51526;BME280;37611;51.794;21.590;2023-11-19T16:31:22;99425.98;;;0.49;100.00
51526;BME280;37611;51.794;21.590;2023-11-19T16:35:25;99421.39;;;0.48;100.00
51526;BME280;37611;51.794;21.590;2023-11-19T16:39:27;99422.55;;;0.46;100.00
51526;BME280;37611;51.794;21.590;2023-11-19T16:43:29;99420.04;;;0.43;100.00
51526;BME280;37611;51.794;21.590;2023-11-19T16:47:32;99408.77;;;0.38;100.00
51526;BME280;37611;51.794;21.590;2023-11-19T16:51:34;99399.37;;;0.37;100.00
51526;BME280;37611;51.794;21.590;2023-11-19T16:55:36;99394.71;;;0.35;100.00
51526;BME280;37611;51.794;21.590;2023-11-19T16:59:38;99386.71;;;0.33;100.00
51526;BME280;37611;51.794;21.590;2023-11-19T17:03:40;99393.27;;;0.33;100.00
51526;BME280;37611;51.794;21.590;2023-11-19T17:07:43;99396.08;;;0.38;100.00
51526;BME280;37611;51.794;21.590;2023-11-19T17:11:45;99378.52;;;0.40;100.00
51526;BME280;37611;51.794;21.590;2023-11-19T17:15:47;99379.95;;;0.42;100.00
51526;BME280;37611;51.794;21.590;2023-11-19T17:19:49;99383.34;;;0.45;100.00
51526;BME280;37611;51.794;21.590;2023-11-19T17:34:29;99365.46;;;0.47;100.00
51526;BME280;37611;51.794;21.590;2023-11-19T17:38:32;99361.69;;;0.47;100.00
51526;BME280;37611;51.794;21.590;2023-11-19T17:42:34;99353.89;;;0.48;100.00
51526;BME280;37611;51.794;21.590;2023-11-19T17:46:36;99352.86;;;0.45;100.00
51526;BME280;37611;51.794;21.590;2023-11-19T17:50:38;99345.20;;;0.41;100.00
51526;BME280;37611;51.794;21.590;2023-11-19T17:54:42;99338.80;;;0.39;100.00
51526;BME280;37611;51.794;21.590;2023-11-19T17:58:44;99333.95;;;0.40;100.00
51526;BME280;37611;51.794;21.590;2023-11-19T18:13:18;99325.44;;;0.38;100.00
51526;BME280;37611;51.794;21.590;2023-11-19T18:17:21;99321.98;;;0.38;100.00
51526;BME280;37611;51.794;21.590;2023-11-19T18:21:23;99316.99;;;0.38;100.00
51526;BME280;37611;51.794;21.590;2023-11-19T18:25:31;99309.84;;;0.37;100.00
51526;BME280;37611;51.794;21.590;2023-11-19T18:34:56;99297.32;;;0.36;100.00
51526;BME280;37611;51.794;21.590;2023-11-19T19:16:17;99258.96;;;0.31;100.00
51526;BME280;37611;51.794;21.590;2023-11-19T19:20:19;99255.80;;;0.32;100.00
51526;BME280;37611;51.794;21.590;2023-11-19T19:24:22;99249.86;;;0.33;100.00
51526;BME280;37611;51.794;21.590;2023-11-19T19:28:30;99246.03;;;0.36;100.00
51526;BME280;37611;51.794;21.590;2023-11-19T19:32:33;99244.17;;;0.35;100.00
51526;BME280;37611;51.794;21.590;2023-11-19T19:36:35;99239.21;;;0.35;100.00
51526;BME280;37611;51.794;21.590;2023-11-19T19:46:10;99234.11;;;0.34;100.00
51526;BME280;37611;51.794;21.590;2023-11-19T19:50:14;99230.16;;;0.34;100.00
51526;BME280;37611;51.794;21.590;2023-11-19T19:54:16;99231.86;;;0.32;100.00
51526;BME280;37611;51.794;21.590;2023-11-19T19:58:24;99232.31;;;0.33;100.00
51526;BME280;37611;51.794;21.590;2023-11-19T20:02:32;99229.52;;;0.38;100.00
51526;BME280;37611;51.794;21.590;2023-11-19T20:07:06;99225.52;;;0.38;100.00
51526;BME280;37611;51.794;21.590;2023-11-19T20:11:31;99221.96;;;0.40;100.00
51526;BME280;37611;51.794;21.590;2023-11-19T20:15:48;99223.91;;;0.42;100.00
51526;BME280;37611;51.794;21.590;2023-11-19T20:19:53;99222.44;;;0.43;100.00
51526;BME280;37611;51.794;21.590;2023-11-19T20:24:20;99223.56;;;0.47;100.00
51526;BME280;37611;51.794;21.590;2023-11-19T20:28:34;99218.61;;;0.49;100.00
51526;BME280;37611;51.794;21.590;2023-11-19T20:32:45;99212.81;;;0.48;100.00
51526;BME280;37611;51.794;21.590;2023-11-19T20:37:13;99211.36;;;0.46;100.00
51526;BME280;37611;51.794;21.590;2023-11-19T20:41:38;99202.83;;;0.48;100.00
51526;BME280;37611;51.794;21.590;2023-11-19T20:45:41;99197.19;;;0.45;100.00
51526;BME280;37611;51.794;21.590;2023-11-19T20:49:44;99195.51;;;0.44;100.00
51526;BME280;37611;51.794;21.590;2023-11-19T20:53:46;99194.94;;;0.42;100.00
51526;BME280;37611;51.794;21.590;2023-11-19T20:57:48;99190.19;;;0.41;100.00
51526;BME280;37611;51.794;21.590;2023-11-19T21:01:51;99189.59;;;0.38;100.00
51526;BME280;37611;51.794;21.590;2023-11-19T21:05:53;99186.77;;;0.34;100.00
51526;BME280;37611;51.794;21.590;2023-11-19T21:09:57;99178.43;;;0.30;100.00
51526;BME280;37611;51.794;21.590;2023-11-19T21:13:59;99171.52;;;0.30;100.00
51526;BME280;37611;51.794;21.590;2023-11-19T21:18:01;99172.27;;;0.32;100.00
51526;BME280;37611;51.794;21.590;2023-11-19T21:22:03;99168.99;;;0.34;100.00
51526;BME280;37611;51.794;21.590;2023-11-19T21:26:06;99163.83;;;0.34;100.00
51526;BME280;37611;51.794;21.590;2023-11-19T21:30:08;99153.36;;;0.33;100.00
51526;BME280;37611;51.794;21.590;2023-11-19T21:34:11;99156.09;;;0.37;100.00
51526;BME280;37611;51.794;21.590;2023-11-19T21:38:13;99150.05;;;0.32;100.00
51526;BME280;37611;51.794;21.590;2023-11-19T21:42:15;99148.30;;;0.30;100.00
51526;BME280;37611;51.794;21.590;2023-11-19T21:46:17;99143.50;;;0.30;100.00
51526;BME280;37611;51.794;21.590;2023-11-19T21:50:22;99136.15;;;0.29;100.00
51526;BME280;37611;51.794;21.590;2023-11-19T21:54:24;99128.84;;;0.30;100.00
51526;BME280;37611;51.794;21.590;2023-11-19T21:58:25;99129.70;;;0.27;100.00
51526;BME280;37611;51.794;21.590;2023-11-19T22:02:27;99129.03;;;0.27;100.00
51526;BME280;37611;51.794;21.590;2023-11-19T22:06:29;99128.40;;;0.27;100.00
51526;BME280;37611;51.794;21.590;2023-11-19T22:10:31;99120.48;;;0.29;100.00
51526;BME280;37611;51.794;21.590;2023-11-19T22:14:32;99116.61;;;0.32;100.00
51526;BME280;37611;51.794;21.590;2023-11-19T22:18:36;99110.16;;;0.33;100.00
51526;BME280;37611;51.794;21.590;2023-11-19T22:22:39;99112.46;;;0.37;100.00
51526;BME280;37611;51.794;21.590;2023-11-19T22:26:42;99098.80;;;0.38;100.00
51526;BME280;37611;51.794;21.590;2023-11-19T22:30:44;99091.81;;;0.40;100.00
51526;BME280;37611;51.794;21.590;2023-11-19T22:34:45;99093.66;;;0.42;100.00
51526;BME280;37611;51.794;21.590;2023-11-19T22:38:47;99083.64;;;0.43;100.00
51526;BME280;37611;51.794;21.590;2023-11-19T22:42:49;99085.74;;;0.42;100.00
51526;BME280;37611;51.794;21.590;2023-11-19T22:46:51;99083.05;;;0.41;100.00
51526;BME280;37611;51.794;21.590;2023-11-19T22:50:53;99081.69;;;0.41;100.00
51526;BME280;37611;51.794;21.590;2023-11-19T22:54:55;99085.36;;;0.43;100.00
51526;BME280;37611;51.794;21.590;2023-11-19T22:58:57;99082.20;;;0.44;100.00
51526;BME280;37611;51.794;21.590;2023-11-19T23:02:59;99073.18;;;0.44;100.00
51526;BME280;37611;51.794;21.590;2023-11-19T23:07:05;99066.34;;;0.46;100.00
51526;BME280;37611;51.794;21.590;2023-11-19T23:11:07;99068.17;;;0.47;100.00
51526;BME280;37611;51.794;21.590;2023-11-19T23:15:09;99069.48;;;0.48;100.00
51526;BME280;37611;51.794;21.590;2023-11-19T23:19:17;99063.27;;;0.48;100.00
51526;BME280;37611;51.794;21.590;2023-11-19T23:23:19;99062.35;;;0.47;100.00
51526;BME280;37611;51.794;21.590;2023-11-19T23:27:20;99059.81;;;0.48;100.00
51526;BME280;37611;51.794;21.590;2023-11-19T23:31:22;99056.11;;;0.50;100.00
51526;BME280;37611;51.794;21.590;2023-11-19T23:35:24;99051.84;;;0.52;100.00
51526;BME280;37611;51.794;21.590;2023-11-19T23:39:25;99049.16;;;0.53;100.00
51526;BME280;37611;51.794;21.590;2023-11-19T23:43:27;99058.98;;;0.56;100.00
51526;BME280;37611;51.794;21.590;2023-11-19T23:47:29;99054.98;;;0.56;100.00
51526;BME280;37611;51.794;21.590;2023-11-19T23:51:31;99056.11;;;0.55;100.00
51526;BME280;37611;51.794;21.590;2023-11-19T23:55:33;99052.61;;;0.53;100.00
51526;BME280;37611;51.794;21.590;2023-11-19T23:59:34;99046.13;;;0.52;100.00
